sensor_id;sensor_type;location;lat;lon;timestamp;P1;durP1;ratioP1;P2;durP2;ratioP2
15261;SDS011;7733;51.554;13.590;2024-01-15T00:02:08;9.87;;;8.57;;
15261;SDS011;7733;51.554;13.590;2024-01-15T00:04:37;9.93;;;8.93;;
15261;SDS011;7733;51.554;13.590;2024-01-15T00:07:06;9.47;;;8.57;;
15261;SDS011;7733;51.554;13.590;2024-01-15T00:09:33;9.17;;;8.27;;
15261;SDS011;7733;51.554;13.590;2024-01-15T00:12:00;8.53;;;7.73;;
15261;SDS011;7733;51.554;13.590;2024-01-15T00:14:26;9.10;;;8.20;;
15261;SDS011;7733;51.554;13.590;2024-01-15T00:16:52;8.47;;;7.67;;
15261;SDS011;7733;51.554;13.590;2024-01-15T00:19:20;8.87;;;7.97;;
15261;SDS011;7733;51.554;13.590;2024-01-15T00:21:47;9.17;;;8.27;;
15261;SDS011;7733;51.554;13.590;2024-01-15T00:24:13;9.17;;;8.27;;
15261;SDS011;7733;51.554;13.590;2024-01-15T00:26:39;8.50;;;7.80;;
15261;SDS011;7733;51.554;13.590;2024-01-15T00:29:08;9.53;;;8.53;;
15261;SDS011;7733;51.554;13.590;2024-01-15T00:31:34;8.57;;;7.73;;
15261;SDS011;7733;51.554;13.590;2024-01-15T00:34:01;8.40;;;7.60;;
15261;SDS011;7733;51.554;13.590;2024-01-15T00:36:27;8.47;;;7.53;;
15261;SDS011;7733;51.554;13.590;2024-01-15T00:38:53;7.90;;;7.20;;
15261;SDS011;7733;51.554;13.590;2024-01-15T00:41:19;7.80;;;7.20;;
15261;SDS011;7733;51.554;13.590;2024-01-15T00:43:45;8.50;;;7.13;;
15261;SDS011;7733;51.554;13.590;2024-01-15T00:46:11;8.10;;;7.30;;
15261;SDS011;7733;51.554;13.590;2024-01-15T00:48:37;7.77;;;7.17;;
15261;SDS011;7733;51.554;13.590;2024-01-15T00:51:06;8.03;;;7.33;;
15261;SDS011;7733;51.554;13.590;2024-01-15T00:53:32;9.13;;;8.27;;
15261;SDS011;7733;51.554;13.590;2024-01-15T00:55:57;9.17;;;8.27;;
15261;SDS011;7733;51.554;13.590;2024-01-15T00:58:23;8.37;;;7.57;;
15261;SDS011;7733;51.554;13.590;2024-01-15T01:00:49;8.73;;;7.93;;
15261;SDS011;7733;51.554;13.590;2024-01-15T01:03:14;8.77;;;7.80;;
15261;SDS011;7733;51.554;13.590;2024-01-15T01:05:40;8.70;;;7.80;;
15261;SDS011;7733;51.554;13.590;2024-01-15T01:08:06;10.77;;;8.40;;
15261;SDS011;7733;51.554;13.590;2024-01-15T01:10:32;9.57;;;8.57;;
15261;SDS011;7733;51.554;13.590;2024-01-15T01:12:57;8.50;;;7.60;;
15261;SDS011;7733;51.554;13.590;2024-01-15T01:15:23;8.93;;;7.83;;
15261;SDS011;7733;51.554;13.590;2024-01-15T01:17:49;9.57;;;7.73;;
15261;SDS011;7733;51.554;13.590;2024-01-15T01:20:15;9.80;;;8.27;;
15261;SDS011;7733;51.554;13.590;2024-01-15T01:22:41;9.27;;;8.37;;
15261;SDS011;7733;51.554;13.590;2024-01-15T01:25:07;8.07;;;7.30;;
15261;SDS011;7733;51.554;13.590;2024-01-15T01:27:34;8.23;;;7.43;;
15261;SDS011;7733;51.554;13.590;2024-01-15T01:30:00;9.30;;;8.40;;
15261;SDS011;7733;51.554;13.590;2024-01-15T01:32:26;10.07;;;8.60;;
15261;SDS011;7733;51.554;13.590;2024-01-15T01:34:52;8.80;;;8.00;;
15261;SDS011;7733;51.554;13.590;2024-01-15T01:37:18;9.03;;;8.13;;
15261;SDS011;7733;51.554;13.590;2024-01-15T01:39:44;9.00;;;8.20;;
15261;SDS011;7733;51.554;13.590;2024-01-15T01:42:10;9.13;;;8.00;;
15261;SDS011;7733;51.554;13.590;2024-01-15T01:44:37;9.33;;;8.13;;
15261;SDS011;7733;51.554;13.590;2024-01-15T01:47:03;9.10;;;8.30;;
15261;SDS011;7733;51.554;13.590;2024-01-15T01:49:30;9.30;;;8.33;;
15261;SDS011;7733;51.554;13.590;2024-01-15T01:51:57;8.97;;;8.10;;
15261;SDS011;7733;51.554;13.590;2024-01-15T01:54:26;9.57;;;8.57;;
15261;SDS011;7733;51.554;13.590;2024-01-15T01:56:56;8.83;;;8.03;;
15261;SDS011;7733;51.554;13.590;2024-01-15T01:59:23;9.13;;;8.23;;
15261;SDS011;7733;51.554;13.590;2024-01-15T02:01:54;8.80;;;7.90;;
15261;SDS011;7733;51.554;13.590;2024-01-15T02:04:20;9.43;;;8.40;;
15261;SDS011;7733;51.554;13.590;2024-01-15T02:06:49;9.40;;;8.50;;
15261;SDS011;7733;51.554;13.590;2024-01-15T02:09:16;9.20;;;8.30;;
15261;SDS011;7733;51.554;13.590;2024-01-15T02:11:43;8.67;;;7.87;;
15261;SDS011;7733;51.554;13.590;2024-01-15T02:14:12;9.10;;;8.23;;
15261;SDS011;7733;51.554;13.590;2024-01-15T02:16:38;9.40;;;8.50;;
15261;SDS011;7733;51.554;13.590;2024-01-15T02:19:04;8.67;;;7.77;;
15261;SDS011;7733;51.554;13.590;2024-01-15T02:21:31;8.77;;;7.97;;
15261;SDS011;7733;51.554;13.590;2024-01-15T02:23:57;8.57;;;7.77;;
15261;SDS011;7733;51.554;13.590;2024-01-15T02:26:23;8.70;;;7.80;;
15261;SDS011;7733;51.554;13.590;2024-01-15T02:28:49;8.13;;;7.33;;
15261;SDS011;7733;51.554;13.590;2024-01-15T02:31:16;9.10;;;8.20;;
15261;SDS011;7733;51.554;13.590;2024-01-15T02:33:42;8.27;;;7.57;;
15261;SDS011;7733;51.554;13.590;2024-01-15T02:36:11;9.60;;;8.60;;
15261;SDS011;7733;51.554;13.590;2024-01-15T02:38:37;8.93;;;8.10;;
15261;SDS011;7733;51.554;13.590;2024-01-15T02:41:03;8.07;;;7.37;;
15261;SDS011;7733;51.554;13.590;2024-01-15T02:43:29;9.00;;;8.03;;
15261;SDS011;7733;51.554;13.590;2024-01-15T02:45:55;8.40;;;7.60;;
15261;SDS011;7733;51.554;13.590;2024-01-15T02:48:20;8.50;;;7.70;;
15261;SDS011;7733;51.554;13.590;2024-01-15T02:50:46;9.00;;;8.10;;
15261;SDS011;7733;51.554;13.590;2024-01-15T02:53:12;9.20;;;8.40;;
15261;SDS011;7733;51.554;13.590;2024-01-15T02:55:37;10.00;;;7.80;;
15261;SDS011;7733;51.554;13.590;2024-01-15T02:58:03;8.50;;;7.70;;
15261;SDS011;7733;51.554;13.590;2024-01-15T03:00:29;9.50;;;8.53;;
15261;SDS011;7733;51.554;13.590;2024-01-15T03:02:55;9.07;;;8.27;;
15261;SDS011;7733;51.554;13.590;2024-01-15T03:05:21;9.10;;;8.20;;
15261;SDS011;7733;51.554;13.590;2024-01-15T03:07:47;9.50;;;8.20;;
15261;SDS011;7733;51.554;13.590;2024-01-15T03:10:13;9.40;;;8.47;;
15261;SDS011;7733;51.554;13.590;2024-01-15T03:12:39;9.17;;;8.27;;
15261;SDS011;7733;51.554;13.590;2024-01-15T03:15:04;8.53;;;7.73;;
15261;SDS011;7733;51.554;13.590;2024-01-15T03:17:30;8.57;;;7.77;;
15261;SDS011;7733;51.554;13.590;2024-01-15T03:19:56;9.03;;;8.10;;
15261;SDS011;7733;51.554;13.590;2024-01-15T03:22:22;9.40;;;8.50;;
15261;SDS011;7733;51.554;13.590;2024-01-15T03:24:48;9.53;;;8.57;;
15261;SDS011;7733;51.554;13.590;2024-01-15T03:27:13;9.60;;;8.60;;
15261;SDS011;7733;51.554;13.590;2024-01-15T03:29:40;9.67;;;8.67;;
15261;SDS011;7733;51.554;13.590;2024-01-15T03:32:06;10.27;;;9.10;;
15261;SDS011;7733;51.554;13.590;2024-01-15T03:34:32;9.43;;;8.53;;
15261;SDS011;7733;51.554;13.590;2024-01-15T03:36:58;9.33;;;8.53;;
15261;SDS011;7733;51.554;13.590;2024-01-15T03:39:24;8.93;;;8.03;;
15261;SDS011;7733;51.554;13.590;2024-01-15T03:41:50;9.20;;;8.30;;
15261;SDS011;7733;51.554;13.590;2024-01-15T03:44:16;8.83;;;7.93;;
15261;SDS011;7733;51.554;13.590;2024-01-15T03:46:42;9.80;;;8.83;;
15261;SDS011;7733;51.554;13.590;2024-01-15T03:49:07;9.50;;;8.60;;
15261;SDS011;7733;51.554;13.590;2024-01-15T03:51:33;9.87;;;8.87;;
15261;SDS011;7733;51.554;13.590;2024-01-15T03:53:59;9.67;;;8.77;;
15261;SDS011;7733;51.554;13.590;2024-01-15T03:56:25;9.60;;;8.60;;
15261;SDS011;7733;51.554;13.590;2024-01-15T03:58:50;10.47;;;9.37;;
15261;SDS011;7733;51.554;13.590;2024-01-15T04:01:16;9.10;;;8.20;;
15261;SDS011;7733;51.554;13.590;2024-01-15T04:03:42;9.80;;;8.80;;
15261;SDS011;7733;51.554;13.590;2024-01-15T04:06:07;10.50;;;8.60;;
15261;SDS011;7733;51.554;13.590;2024-01-15T04:08:33;10.03;;;8.70;;
15261;SDS011;7733;51.554;13.590;2024-01-15T04:10:59;9.80;;;8.60;;
15261;SDS011;7733;51.554;13.590;2024-01-15T04:13:27;9.80;;;8.37;;
15261;SDS011;7733;51.554;13.590;2024-01-15T04:15:52;10.30;;;8.60;;
15261;SDS011;7733;51.554;13.590;2024-01-15T04:18:18;9.43;;;8.43;;
15261;SDS011;7733;51.554;13.590;2024-01-15T04:20:44;9.53;;;8.63;;
15261;SDS011;7733;51.554;13.590;2024-01-15T04:23:10;8.57;;;7.70;;
15261;SDS011;7733;51.554;13.590;2024-01-15T04:25:35;9.00;;;8.10;;
15261;SDS011;7733;51.554;13.590;2024-01-15T04:28:01;8.90;;;8.00;;
15261;SDS011;7733;51.554;13.590;2024-01-15T04:30:27;8.30;;;7.50;;
15261;SDS011;7733;51.554;13.590;2024-01-15T04:32:53;9.40;;;7.97;;
15261;SDS011;7733;51.554;13.590;2024-01-15T04:35:18;8.93;;;7.90;;
15261;SDS011;7733;51.554;13.590;2024-01-15T04:37:44;9.23;;;8.33;;
15261;SDS011;7733;51.554;13.590;2024-01-15T04:40:10;8.57;;;7.77;;
15261;SDS011;7733;51.554;13.590;2024-01-15T04:42:36;9.13;;;8.17;;
15261;SDS011;7733;51.554;13.590;2024-01-15T04:45:02;8.00;;;7.30;;
15261;SDS011;7733;51.554;13.590;2024-01-15T04:47:28;8.77;;;7.47;;
15261;SDS011;7733;51.554;13.590;2024-01-15T04:49:54;8.13;;;7.33;;
15261;SDS011;7733;51.554;13.590;2024-01-15T04:52:20;7.60;;;6.90;;
15261;SDS011;7733;51.554;13.590;2024-01-15T04:54:45;7.77;;;6.97;;
15261;SDS011;7733;51.554;13.590;2024-01-15T04:57:11;7.93;;;7.23;;
15261;SDS011;7733;51.554;13.590;2024-01-15T04:59:37;7.67;;;6.87;;
15261;SDS011;7733;51.554;13.590;2024-01-15T05:02:03;7.83;;;7.13;;
15261;SDS011;7733;51.554;13.590;2024-01-15T05:04:28;7.43;;;6.73;;
15261;SDS011;7733;51.554;13.590;2024-01-15T05:06:54;8.10;;;6.60;;
15261;SDS011;7733;51.554;13.590;2024-01-15T05:09:20;7.97;;;7.17;;
15261;SDS011;7733;51.554;13.590;2024-01-15T05:11:46;6.77;;;6.17;;
15261;SDS011;7733;51.554;13.590;2024-01-15T05:14:12;8.47;;;7.10;;
15261;SDS011;7733;51.554;13.590;2024-01-15T05:16:38;8.10;;;7.33;;
15261;SDS011;7733;51.554;13.590;2024-01-15T05:19:06;8.23;;;7.27;;
15261;SDS011;7733;51.554;13.590;2024-01-15T05:21:33;7.63;;;6.93;;
15261;SDS011;7733;51.554;13.590;2024-01-15T05:23:58;7.43;;;6.73;;
15261;SDS011;7733;51.554;13.590;2024-01-15T05:26:24;8.00;;;7.30;;
15261;SDS011;7733;51.554;13.590;2024-01-15T05:28:50;7.87;;;7.07;;
15261;SDS011;7733;51.554;13.590;2024-01-15T05:31:15;8.13;;;7.30;;
15261;SDS011;7733;51.554;13.590;2024-01-15T05:33:41;7.43;;;6.73;;
15261;SDS011;7733;51.554;13.590;2024-01-15T05:36:07;7.93;;;7.13;;
15261;SDS011;7733;51.554;13.590;2024-01-15T05:38:33;7.90;;;6.87;;
15261;SDS011;7733;51.554;13.590;2024-01-15T05:40:58;8.30;;;6.90;;
15261;SDS011;7733;51.554;13.590;2024-01-15T05:43:24;6.97;;;6.27;;
15261;SDS011;7733;51.554;13.590;2024-01-15T05:45:50;6.97;;;6.37;;
15261;SDS011;7733;51.554;13.590;2024-01-15T05:48:15;6.87;;;6.00;;
15261;SDS011;7733;51.554;13.590;2024-01-15T05:50:41;6.57;;;6.07;;
15261;SDS011;7733;51.554;13.590;2024-01-15T05:53:07;6.90;;;6.20;;
15261;SDS011;7733;51.554;13.590;2024-01-15T05:55:33;7.00;;;6.30;;
15261;SDS011;7733;51.554;13.590;2024-01-15T05:58:01;8.27;;;6.40;;
15261;SDS011;7733;51.554;13.590;2024-01-15T06:00:26;7.10;;;6.40;;
15261;SDS011;7733;51.554;13.590;2024-01-15T06:02:52;6.47;;;5.93;;
15261;SDS011;7733;51.554;13.590;2024-01-15T06:05:18;6.90;;;6.30;;
15261;SDS011;7733;51.554;13.590;2024-01-15T06:07:44;6.13;;;5.63;;
15261;SDS011;7733;51.554;13.590;2024-01-15T06:10:09;7.07;;;6.30;;
15261;SDS011;7733;51.554;13.590;2024-01-15T06:12:35;5.77;;;5.30;;
15261;SDS011;7733;51.554;13.590;2024-01-15T06:15:01;6.40;;;5.80;;
15261;SDS011;7733;51.554;13.590;2024-01-15T06:17:27;6.83;;;5.87;;
15261;SDS011;7733;51.554;13.590;2024-01-15T06:19:53;6.33;;;5.57;;
15261;SDS011;7733;51.554;13.590;2024-01-15T06:22:18;6.03;;;5.53;;
15261;SDS011;7733;51.554;13.590;2024-01-15T06:24:44;5.93;;;5.33;;
15261;SDS011;7733;51.554;13.590;2024-01-15T06:27:10;5.60;;;5.07;;
15261;SDS011;7733;51.554;13.590;2024-01-15T06:29:37;5.93;;;5.30;;
15261;SDS011;7733;51.554;13.590;2024-01-15T06:32:03;5.50;;;5.00;;
15261;SDS011;7733;51.554;13.590;2024-01-15T06:34:29;6.27;;;5.40;;
15261;SDS011;7733;51.554;13.590;2024-01-15T06:36:55;6.27;;;5.33;;
15261;SDS011;7733;51.554;13.590;2024-01-15T06:39:21;6.30;;;5.27;;
15261;SDS011;7733;51.554;13.590;2024-01-15T06:41:47;5.67;;;5.07;;
15261;SDS011;7733;51.554;13.590;2024-01-15T06:44:12;6.57;;;4.73;;
15261;SDS011;7733;51.554;13.590;2024-01-15T06:46:42;5.53;;;4.90;;
15261;SDS011;7733;51.554;13.590;2024-01-15T06:49:08;4.80;;;4.40;;
15261;SDS011;7733;51.554;13.590;2024-01-15T06:51:34;4.80;;;4.37;;
15261;SDS011;7733;51.554;13.590;2024-01-15T06:54:00;5.20;;;4.63;;
15261;SDS011;7733;51.554;13.590;2024-01-15T06:56:28;5.10;;;4.60;;
15261;SDS011;7733;51.554;13.590;2024-01-15T06:58:53;6.40;;;4.70;;
15261;SDS011;7733;51.554;13.590;2024-01-15T07:01:19;6.13;;;4.47;;
15261;SDS011;7733;51.554;13.590;2024-01-15T07:03:45;5.33;;;4.83;;
15261;SDS011;7733;51.554;13.590;2024-01-15T07:06:11;5.63;;;4.90;;
15261;SDS011;7733;51.554;13.590;2024-01-15T07:08:37;4.67;;;4.27;;
15261;SDS011;7733;51.554;13.590;2024-01-15T07:11:05;4.83;;;4.43;;
15261;SDS011;7733;51.554;13.590;2024-01-15T07:13:32;5.77;;;4.90;;
15261;SDS011;7733;51.554;13.590;2024-01-15T07:15:57;4.70;;;4.30;;
15261;SDS011;7733;51.554;13.590;2024-01-15T07:18:23;4.67;;;4.27;;
15261;SDS011;7733;51.554;13.590;2024-01-15T07:20:50;5.77;;;4.60;;
15261;SDS011;7733;51.554;13.590;2024-01-15T07:23:16;4.90;;;4.50;;
15261;SDS011;7733;51.554;13.590;2024-01-15T07:25:42;6.50;;;4.10;;
15261;SDS011;7733;51.554;13.590;2024-01-15T07:28:08;6.17;;;4.73;;
15261;SDS011;7733;51.554;13.590;2024-01-15T07:30:34;4.97;;;4.57;;
15261;SDS011;7733;51.554;13.590;2024-01-15T07:33:00;5.67;;;4.40;;
15261;SDS011;7733;51.554;13.590;2024-01-15T07:35:26;5.57;;;4.50;;
15261;SDS011;7733;51.554;13.590;2024-01-15T07:37:52;4.53;;;4.23;;
15261;SDS011;7733;51.554;13.590;2024-01-15T07:40:17;4.90;;;4.50;;
15261;SDS011;7733;51.554;13.590;2024-01-15T07:42:43;5.43;;;4.93;;
15261;SDS011;7733;51.554;13.590;2024-01-15T07:45:10;4.40;;;4.00;;
15261;SDS011;7733;51.554;13.590;2024-01-15T07:47:36;5.53;;;4.00;;
15261;SDS011;7733;51.554;13.590;2024-01-15T07:50:02;5.30;;;4.33;;
15261;SDS011;7733;51.554;13.590;2024-01-15T07:52:29;5.17;;;4.30;;
15261;SDS011;7733;51.554;13.590;2024-01-15T07:54:55;5.10;;;4.50;;
15261;SDS011;7733;51.554;13.590;2024-01-15T07:57:21;5.00;;;4.53;;
15261;SDS011;7733;51.554;13.590;2024-01-15T07:59:47;4.10;;;3.90;;
15261;SDS011;7733;51.554;13.590;2024-01-15T08:02:13;4.87;;;4.47;;
15261;SDS011;7733;51.554;13.590;2024-01-15T08:04:39;5.40;;;4.53;;
15261;SDS011;7733;51.554;13.590;2024-01-15T08:07:05;5.07;;;4.60;;
15261;SDS011;7733;51.554;13.590;2024-01-15T08:09:32;4.70;;;4.33;;
15261;SDS011;7733;51.554;13.590;2024-01-15T08:11:58;4.47;;;4.07;;
15261;SDS011;7733;51.554;13.590;2024-01-15T08:14:25;4.90;;;4.40;;
15261;SDS011;7733;51.554;13.590;2024-01-15T08:16:50;4.73;;;4.33;;
15261;SDS011;7733;51.554;13.590;2024-01-15T08:19:16;4.77;;;4.37;;
15261;SDS011;7733;51.554;13.590;2024-01-15T08:21:42;5.50;;;4.37;;
15261;SDS011;7733;51.554;13.590;2024-01-15T08:24:08;5.47;;;4.73;;
15261;SDS011;7733;51.554;13.590;2024-01-15T08:26:33;4.50;;;4.10;;
15261;SDS011;7733;51.554;13.590;2024-01-15T08:28:59;4.80;;;4.37;;
15261;SDS011;7733;51.554;13.590;2024-01-15T08:31:25;4.53;;;4.17;;
15261;SDS011;7733;51.554;13.590;2024-01-15T08:33:52;5.10;;;4.03;;
15261;SDS011;7733;51.554;13.590;2024-01-15T08:36:18;4.63;;;4.20;;
15261;SDS011;7733;51.554;13.590;2024-01-15T08:38:43;4.37;;;4.07;;
15261;SDS011;7733;51.554;13.590;2024-01-15T08:41:09;4.50;;;4.17;;
15261;SDS011;7733;51.554;13.590;2024-01-15T08:43:35;4.20;;;3.80;;
15261;SDS011;7733;51.554;13.590;2024-01-15T08:46:01;5.03;;;3.87;;
15261;SDS011;7733;51.554;13.590;2024-01-15T08:48:28;4.33;;;3.93;;
15261;SDS011;7733;51.554;13.590;2024-01-15T08:50:54;5.03;;;4.53;;
15261;SDS011;7733;51.554;13.590;2024-01-15T08:53:21;4.30;;;3.90;;
15261;SDS011;7733;51.554;13.590;2024-01-15T08:55:47;4.43;;;4.03;;
15261;SDS011;7733;51.554;13.590;2024-01-15T08:58:13;4.47;;;4.10;;
15261;SDS011;7733;51.554;13.590;2024-01-15T09:00:39;3.97;;;3.67;;
15261;SDS011;7733;51.554;13.590;2024-01-15T09:03:05;6.17;;;4.30;;
15261;SDS011;7733;51.554;13.590;2024-01-15T09:05:31;4.20;;;3.80;;
15261;SDS011;7733;51.554;13.590;2024-01-15T09:07:57;4.50;;;4.10;;
15261;SDS011;7733;51.554;13.590;2024-01-15T09:10:23;4.93;;;3.97;;
15261;SDS011;7733;51.554;13.590;2024-01-15T09:12:49;3.80;;;3.50;;
15261;SDS011;7733;51.554;13.590;2024-01-15T09:15:15;4.70;;;4.30;;
15261;SDS011;7733;51.554;13.590;2024-01-15T09:17:41;4.67;;;3.93;;
15261;SDS011;7733;51.554;13.590;2024-01-15T09:20:07;4.67;;;4.27;;
15261;SDS011;7733;51.554;13.590;2024-01-15T09:22:35;4.83;;;3.83;;
15261;SDS011;7733;51.554;13.590;2024-01-15T09:25:05;3.70;;;3.40;;
15261;SDS011;7733;51.554;13.590;2024-01-15T09:27:31;4.80;;;4.03;;
15261;SDS011;7733;51.554;13.590;2024-01-15T09:29:57;4.10;;;3.70;;
15261;SDS011;7733;51.554;13.590;2024-01-15T09:32:23;3.70;;;3.40;;
15261;SDS011;7733;51.554;13.590;2024-01-15T09:34:49;4.13;;;3.83;;
15261;SDS011;7733;51.554;13.590;2024-01-15T09:37:14;4.37;;;3.97;;
15261;SDS011;7733;51.554;13.590;2024-01-15T09:39:40;4.13;;;3.77;;
15261;SDS011;7733;51.554;13.590;2024-01-15T09:42:07;4.30;;;3.90;;
15261;SDS011;7733;51.554;13.590;2024-01-15T09:44:35;4.20;;;3.80;;
15261;SDS011;7733;51.554;13.590;2024-01-15T09:47:03;5.13;;;4.60;;
15261;SDS011;7733;51.554;13.590;2024-01-15T09:49:30;4.33;;;3.93;;
15261;SDS011;7733;51.554;13.590;2024-01-15T09:51:56;4.53;;;4.10;;
15261;SDS011;7733;51.554;13.590;2024-01-15T09:54:23;4.90;;;3.87;;
15261;SDS011;7733;51.554;13.590;2024-01-15T09:56:49;4.47;;;4.03;;
15261;SDS011;7733;51.554;13.590;2024-01-15T09:59:18;5.03;;;4.03;;
15261;SDS011;7733;51.554;13.590;2024-01-15T10:01:45;4.93;;;4.40;;
15261;SDS011;7733;51.554;13.590;2024-01-15T10:04:13;4.83;;;4.13;;
15261;SDS011;7733;51.554;13.590;2024-01-15T10:06:40;5.23;;;3.90;;
15261;SDS011;7733;51.554;13.590;2024-01-15T10:09:12;4.63;;;3.97;;
15261;SDS011;7733;51.554;13.590;2024-01-15T10:11:42;4.17;;;3.73;;
15261;SDS011;7733;51.554;13.590;2024-01-15T10:14:09;4.87;;;3.87;;
15261;SDS011;7733;51.554;13.590;2024-01-15T10:16:42;4.50;;;4.10;;
15261;SDS011;7733;51.554;13.590;2024-01-15T10:19:08;4.63;;;4.20;;
15261;SDS011;7733;51.554;13.590;2024-01-15T10:21:35;4.37;;;3.97;;
15261;SDS011;7733;51.554;13.590;2024-01-15T10:24:02;4.17;;;3.87;;
15261;SDS011;7733;51.554;13.590;2024-01-15T10:26:29;4.73;;;3.83;;
15261;SDS011;7733;51.554;13.590;2024-01-15T10:28:56;5.67;;;4.13;;
15261;SDS011;7733;51.554;13.590;2024-01-15T10:31:23;4.10;;;3.73;;
15261;SDS011;7733;51.554;13.590;2024-01-15T10:33:51;4.00;;;3.60;;
15261;SDS011;7733;51.554;13.590;2024-01-15T10:36:17;3.67;;;3.37;;
15261;SDS011;7733;51.554;13.590;2024-01-15T10:38:44;4.17;;;3.80;;
15261;SDS011;7733;51.554;13.590;2024-01-15T10:41:10;4.07;;;3.67;;
15261;SDS011;7733;51.554;13.590;2024-01-15T10:43:36;5.37;;;3.90;;
15261;SDS011;7733;51.554;13.590;2024-01-15T10:46:03;4.93;;;4.43;;
15261;SDS011;7733;51.554;13.590;2024-01-15T10:48:29;4.10;;;3.70;;
15261;SDS011;7733;51.554;13.590;2024-01-15T10:50:59;4.70;;;4.10;;
15261;SDS011;7733;51.554;13.590;2024-01-15T10:53:25;4.33;;;3.50;;
15261;SDS011;7733;51.554;13.590;2024-01-15T10:55:52;3.70;;;3.40;;
15261;SDS011;7733;51.554;13.590;2024-01-15T10:58:20;4.17;;;3.77;;
15261;SDS011;7733;51.554;13.590;2024-01-15T11:00:48;4.50;;;4.10;;
15261;SDS011;7733;51.554;13.590;2024-01-15T11:03:14;3.80;;;3.50;;
15261;SDS011;7733;51.554;13.590;2024-01-15T11:05:42;4.20;;;3.63;;
15261;SDS011;7733;51.554;13.590;2024-01-15T11:08:09;4.80;;;3.60;;
15261;SDS011;7733;51.554;13.590;2024-01-15T11:10:42;5.13;;;3.90;;
15261;SDS011;7733;51.554;13.590;2024-01-15T11:13:21;3.60;;;3.33;;
15261;SDS011;7733;51.554;13.590;2024-01-15T11:16:09;4.27;;;3.87;;
15261;SDS011;7733;51.554;13.590;2024-01-15T11:23:56;3.90;;;3.50;;
15261;SDS011;7733;51.554;13.590;2024-01-15T11:29:02;3.80;;;3.50;;
15261;SDS011;7733;51.554;13.590;2024-01-15T11:32:14;4.27;;;3.87;;
15261;SDS011;7733;51.554;13.590;2024-01-15T11:34:20;3.40;;;3.10;;
15261;SDS011;7733;51.554;13.590;2024-01-15T11:37:22;3.80;;;3.50;;
15261;SDS011;7733;51.554;13.590;2024-01-15T11:39:53;3.87;;;3.27;;
15261;SDS011;7733;51.554;13.590;2024-01-15T11:42:28;3.77;;;2.90;;
15261;SDS011;7733;51.554;13.590;2024-01-15T11:44:55;3.53;;;3.33;;
15261;SDS011;7733;51.554;13.590;2024-01-15T11:48:08;3.50;;;3.20;;
15261;SDS011;7733;51.554;13.590;2024-01-15T11:50:42;3.77;;;3.33;;
15261;SDS011;7733;51.554;13.590;2024-01-15T11:53:27;3.83;;;3.50;;
15261;SDS011;7733;51.554;13.590;2024-01-15T11:56:12;3.60;;;3.30;;
15261;SDS011;7733;51.554;13.590;2024-01-15T11:58:42;4.57;;;3.43;;
15261;SDS011;7733;51.554;13.590;2024-01-15T12:01:08;3.77;;;3.37;;
15261;SDS011;7733;51.554;13.590;2024-01-15T12:03:35;4.50;;;3.23;;
15261;SDS011;7733;51.554;13.590;2024-01-15T12:06:01;4.60;;;3.60;;
15261;SDS011;7733;51.554;13.590;2024-01-15T12:08:30;3.70;;;3.40;;
15261;SDS011;7733;51.554;13.590;2024-01-15T12:10:56;3.97;;;3.53;;
15261;SDS011;7733;51.554;13.590;2024-01-15T12:13:22;3.90;;;3.60;;
15261;SDS011;7733;51.554;13.590;2024-01-15T12:15:48;4.00;;;3.60;;
15261;SDS011;7733;51.554;13.590;2024-01-15T12:18:15;3.93;;;3.50;;
15261;SDS011;7733;51.554;13.590;2024-01-15T12:20:44;4.30;;;3.90;;
15261;SDS011;7733;51.554;13.590;2024-01-15T12:23:13;4.17;;;3.77;;
15261;SDS011;7733;51.554;13.590;2024-01-15T12:25:40;4.40;;;4.00;;
15261;SDS011;7733;51.554;13.590;2024-01-15T12:28:07;3.73;;;3.43;;
15261;SDS011;7733;51.554;13.590;2024-01-15T12:30:33;4.00;;;3.70;;
15261;SDS011;7733;51.554;13.590;2024-01-15T12:33:04;4.30;;;3.90;;
15261;SDS011;7733;51.554;13.590;2024-01-15T12:35:30;4.37;;;3.97;;
15261;SDS011;7733;51.554;13.590;2024-01-15T12:37:56;5.23;;;4.30;;
15261;SDS011;7733;51.554;13.590;2024-01-15T12:40:22;6.73;;;4.53;;
15261;SDS011;7733;51.554;13.590;2024-01-15T12:42:49;5.07;;;4.57;;
15261;SDS011;7733;51.554;13.590;2024-01-15T12:45:15;5.10;;;4.60;;
15261;SDS011;7733;51.554;13.590;2024-01-15T12:47:41;6.23;;;5.47;;
15261;SDS011;7733;51.554;13.590;2024-01-15T12:50:07;6.13;;;5.43;;
15261;SDS011;7733;51.554;13.590;2024-01-15T12:52:35;7.83;;;5.50;;
15261;SDS011;7733;51.554;13.590;2024-01-15T12:55:04;6.13;;;5.30;;
15261;SDS011;7733;51.554;13.590;2024-01-15T12:57:31;6.47;;;5.43;;
15261;SDS011;7733;51.554;13.590;2024-01-15T12:59:59;6.33;;;5.10;;
15261;SDS011;7733;51.554;13.590;2024-01-15T13:02:24;6.67;;;5.97;;
15261;SDS011;7733;51.554;13.590;2024-01-15T13:04:51;7.50;;;5.60;;
15261;SDS011;7733;51.554;13.590;2024-01-15T13:07:17;5.67;;;5.17;;
15261;SDS011;7733;51.554;13.590;2024-01-15T13:09:43;5.90;;;4.80;;
15261;SDS011;7733;51.554;13.590;2024-01-15T13:12:08;5.97;;;5.37;;
15261;SDS011;7733;51.554;13.590;2024-01-15T13:14:34;4.83;;;4.43;;
15261;SDS011;7733;51.554;13.590;2024-01-15T13:17:01;5.00;;;4.60;;
15261;SDS011;7733;51.554;13.590;2024-01-15T13:19:28;5.70;;;4.60;;
15261;SDS011;7733;51.554;13.590;2024-01-15T13:21:54;5.20;;;4.70;;
15261;SDS011;7733;51.554;13.590;2024-01-15T13:24:21;4.80;;;4.17;;
15261;SDS011;7733;51.554;13.590;2024-01-15T13:26:47;4.73;;;4.33;;
15261;SDS011;7733;51.554;13.590;2024-01-15T13:29:13;4.93;;;4.30;;
15261;SDS011;7733;51.554;13.590;2024-01-15T13:31:39;6.43;;;4.37;;
15261;SDS011;7733;51.554;13.590;2024-01-15T13:34:05;5.27;;;4.77;;
15261;SDS011;7733;51.554;13.590;2024-01-15T13:36:32;5.60;;;4.57;;
15261;SDS011;7733;51.554;13.590;2024-01-15T13:38:58;4.50;;;4.10;;
15261;SDS011;7733;51.554;13.590;2024-01-15T13:41:24;4.50;;;4.10;;
15261;SDS011;7733;51.554;13.590;2024-01-15T13:43:52;4.30;;;3.97;;
15261;SDS011;7733;51.554;13.590;2024-01-15T13:46:20;4.50;;;4.10;;
15261;SDS011;7733;51.554;13.590;2024-01-15T13:48:54;5.30;;;4.23;;
15261;SDS011;7733;51.554;13.590;2024-01-15T13:51:23;6.53;;;4.50;;
15261;SDS011;7733;51.554;13.590;2024-01-15T13:53:49;5.60;;;4.90;;
15261;SDS011;7733;51.554;13.590;2024-01-15T13:56:16;6.63;;;5.07;;
15261;SDS011;7733;51.554;13.590;2024-01-15T13:58:42;5.10;;;4.70;;
15261;SDS011;7733;51.554;13.590;2024-01-15T14:01:08;5.40;;;4.90;;
15261;SDS011;7733;51.554;13.590;2024-01-15T14:03:35;5.20;;;4.80;;
15261;SDS011;7733;51.554;13.590;2024-01-15T14:06:01;4.33;;;3.93;;
15261;SDS011;7733;51.554;13.590;2024-01-15T14:08:33;5.30;;;4.57;;
15261;SDS011;7733;51.554;13.590;2024-01-15T14:11:01;7.53;;;4.50;;
15261;SDS011;7733;51.554;13.590;2024-01-15T14:13:30;4.87;;;4.37;;
15261;SDS011;7733;51.554;13.590;2024-01-15T14:15:57;6.60;;;5.20;;
15261;SDS011;7733;51.554;13.590;2024-01-15T14:18:22;5.23;;;4.80;;
15261;SDS011;7733;51.554;13.590;2024-01-15T14:20:48;5.37;;;4.83;;
15261;SDS011;7733;51.554;13.590;2024-01-15T14:23:14;5.93;;;4.97;;
15261;SDS011;7733;51.554;13.590;2024-01-15T14:25:39;5.20;;;4.70;;
15261;SDS011;7733;51.554;13.590;2024-01-15T14:28:05;7.00;;;4.50;;
15261;SDS011;7733;51.554;13.590;2024-01-15T14:30:31;4.13;;;3.83;;
15261;SDS011;7733;51.554;13.590;2024-01-15T14:32:57;4.70;;;4.23;;
15261;SDS011;7733;51.554;13.590;2024-01-15T14:35:23;3.83;;;3.50;;
15261;SDS011;7733;51.554;13.590;2024-01-15T14:37:49;4.73;;;4.07;;
15261;SDS011;7733;51.554;13.590;2024-01-15T14:40:14;4.43;;;4.03;;
15261;SDS011;7733;51.554;13.590;2024-01-15T14:42:40;4.17;;;3.77;;
15261;SDS011;7733;51.554;13.590;2024-01-15T14:45:06;4.73;;;3.93;;
15261;SDS011;7733;51.554;13.590;2024-01-15T14:47:39;5.33;;;4.40;;
15261;SDS011;7733;51.554;13.590;2024-01-15T14:50:06;5.23;;;4.47;;
15261;SDS011;7733;51.554;13.590;2024-01-15T14:52:33;4.63;;;4.30;;
15261;SDS011;7733;51.554;13.590;2024-01-15T14:54:59;6.67;;;4.27;;